Time;durP1;ratioP1;P1;durP2;ratioP2;P2;SDS_P1;SDS_P2;PMS_P1;PMS_P2;Temp;Humidity;BMP_temperature;BMP_pressure;BME280_temperature;BME280_humidity;BME280_pressure;Samples;Min_cycle;Max_cycle;Signal;HPM_P1;HPM_P2
2021/04/04 00:01:46;;;;;;;1.40;1.00;;;4.50;99.90;;;;;;4962176;28;20216;-68
2021/04/04 00:04:13;;;;;;;1.23;0.63;;;4.40;99.90;;;;;;4972456;28;20550;-67
2021/04/04 00:06:40;;;;;;;1.07;0.87;;;4.50;99.90;;;;;;4963164;28;20264;-67
2021/04/04 00:09:07;;;;;;;1.37;0.60;;;4.50;99.90;;;;;;4965794;28;20201;-67
2021/04/04 00:11:34;;;;;;;2.13;0.80;;;4.50;99.90;;;;;;4963370;28;20256;-68
2021/04/04 00:14:01;;;;;;;1.67;0.80;;;4.50;99.90;;;;;;4967169;28;20196;-67
2021/04/04 00:16:28;;;;;;;0.80;0.80;;;4.50;99.90;;;;;;4960586;28;20200;-68
2021/04/04 00:18:55;;;;;;;0.80;0.80;;;4.50;99.90;;;;;;4965887;28;20204;-67
2021/04/04 00:21:22;;;;;;;1.10;1.00;;;4.50;99.90;;;;;;4959068;28;20213;-67
2021/04/04 00:23:48;;;;;;;1.37;1.00;;;4.50;99.90;;;;;;4965011;28;20242;-68
2021/04/04 00:26:15;;;;;;;1.30;0.80;;;4.40;99.90;;;;;;4957677;28;20213;-67
2021/04/04 00:28:42;;;;;;;1.33;0.80;;;4.40;99.90;;;;;;4956223;28;20207;-68
2021/04/04 00:31:09;;;;;;;1.73;1.10;;;4.40;99.90;;;;;;4957709;28;20235;-67
2021/04/04 00:33:36;;;;;;;2.10;0.87;;;4.40;99.90;;;;;;4959243;28;20211;-67
2021/04/04 00:36:03;;;;;;;2.00;1.00;;;4.40;99.90;;;;;;4951692;28;20272;-68
2021/04/04 00:38:30;;;;;;;1.07;0.60;;;4.40;99.90;;;;;;4954233;28;20754;-68
2021/04/04 00:40:56;;;;;;;0.90;0.80;;;4.40;99.90;;;;;;4954276;28;20205;-68
2021/04/04 00:43:23;;;;;;;0.60;0.60;;;4.40;99.90;;;;;;4945340;28;20231;-68
2021/04/04 00:45:50;;;;;;;1.37;1.00;;;4.30;99.90;;;;;;4954009;28;20692;-67
2021/04/04 00:48:17;;;;;;;2.27;0.73;;;4.30;99.90;;;;;;4956109;28;20565;-68
2021/04/04 00:50:44;;;;;;;0.60;0.60;;;4.30;99.90;;;;;;4953337;28;20193;-68
2021/04/04 00:53:11;;;;;;;1.60;1.00;;;4.30;99.90;;;;;;4948964;28;20205;-68
2021/04/04 00:55:38;;;;;;;0.90;0.80;;;4.30;99.90;;;;;;4952370;28;20268;-67
2021/04/04 00:58:05;;;;;;;1.47;1.10;;;4.30;99.90;;;;;;4964518;28;20207;-68
2021/04/04 01:00:35;;;;;;;1.23;1.00;;;4.30;99.90;;;;;;4969224;28;20212;-68
2021/04/04 01:03:02;;;;;;;3.13;0.90;;;4.30;99.90;;;;;;4957068;28;20223;-68
2021/04/04 01:05:36;;;;;;;1.63;0.90;;;4.30;99.90;;;;;;4955867;28;20646;-67
2021/04/04 01:08:04;;;;;;;2.17;1.07;;;4.30;99.90;;;;;;4966384;28;20211;-67
2021/04/04 01:10:33;;;;;;;2.10;0.90;;;4.30;99.90;;;;;;4955898;28;20339;-67
2021/04/04 01:13:15;;;;;;;2.40;1.17;;;4.20;99.90;;;;;;4963569;28;20219;-67
2021/04/04 01:15:45;;;;;;;1.50;0.93;;;4.20;99.90;;;;;;4955212;28;20193;-67
2021/04/04 01:18:18;;;;;;;1.67;1.00;;;4.20;99.90;;;;;;4949241;28;20201;-67
2021/04/04 01:20:50;;;;;;;2.00;0.93;;;4.20;99.90;;;;;;4959994;28;20204;-67
2021/04/04 01:23:38;;;;;;;1.27;1.00;;;4.20;99.90;;;;;;4939006;29;20197;-67
2021/04/04 01:26:13;;;;;;;9.40;2.23;;;4.20;99.90;;;;;;4950499;28;20237;-67
2021/04/04 01:28:44;;;;;;;29.40;6.23;;;4.20;99.90;;;;;;4958782;28;20224;-67
2021/04/04 01:31:11;;;;;;;21.87;6.07;;;4.20;99.90;;;;;;4952823;28;20240;-67
2021/04/04 01:33:41;;;;;;;6.93;2.10;;;4.20;99.90;;;;;;4956449;28;20207;-67
2021/04/04 01:36:13;;;;;;;2.97;1.20;;;4.30;99.90;;;;;;4951306;28;20362;-68
2021/04/04 01:38:43;;;;;;;1.23;0.90;;;4.30;99.90;;;;;;4947146;28;20217;-68
2021/04/04 01:41:17;;;;;;;2.20;0.83;;;4.20;99.90;;;;;;4943128;28;20205;-68
2021/04/04 01:43:46;;;;;;;1.00;0.80;;;4.30;99.90;;;;;;4956376;28;20690;-68
2021/04/04 01:46:14;;;;;;;1.17;0.77;;;4.30;99.90;;;;;;4957656;28;20296;-68
2021/04/04 01:48:41;;;;;;;0.77;0.77;;;4.30;99.90;;;;;;4959327;28;20204;-68
2021/04/04 01:51:10;;;;;;;0.70;0.70;;;4.30;99.90;;;;;;4956564;28;20197;-68
2021/04/04 01:53:39;;;;;;;0.53;0.53;;;4.20;99.90;;;;;;4950683;28;20759;-67
2021/04/04 01:56:07;;;;;;;0.93;0.63;;;4.20;99.90;;;;;;4954572;28;20288;-68
2021/04/04 01:58:34;;;;;;;1.13;0.80;;;4.20;99.90;;;;;;4970411;28;20200;-67
2021/04/04 02:01:02;;;;;;;1.47;0.80;;;4.30;99.90;;;;;;4973818;28;20209;-67
2021/04/04 02:03:29;;;;;;;1.30;0.80;;;4.20;99.90;;;;;;4959929;28;20217;-67
2021/04/04 02:05:57;;;;;;;0.83;0.70;;;4.20;99.90;;;;;;4972350;28;20204;-69
2021/04/04 02:08:25;;;;;;;1.17;0.60;;;4.20;99.90;;;;;;4969547;28;20197;-69
2021/04/04 02:10:53;;;;;;;0.40;0.40;;;4.20;99.90;;;;;;4971890;28;20208;-68
2021/04/04 02:13:20;;;;;;;1.10;0.80;;;4.20;99.90;;;;;;4958199;28;20197;-67
2021/04/04 02:15:48;;;;;;;1.53;0.70;;;4.20;99.90;;;;;;4969816;28;20196;-68
2021/04/04 02:18:16;;;;;;;0.60;0.60;;;4.20;99.90;;;;;;4966773;28;20201;-69
2021/04/04 02:20:45;;;;;;;1.40;0.90;;;4.20;99.90;;;;;;4969056;28;20719;-68
2021/04/04 02:23:13;;;;;;;0.80;0.80;;;4.20;99.90;;;;;;4964501;28;20655;-69
2021/04/04 02:25:40;;;;;;;0.80;0.80;;;4.20;99.90;;;;;;4966620;28;20216;-67
2021/04/04 02:28:08;;;;;;;1.23;0.80;;;4.20;99.90;;;;;;4964591;28;20296;-67
2021/04/04 02:30:35;;;;;;;0.80;0.80;;;4.10;99.90;;;;;;4969492;28;20251;-67
2021/04/04 02:33:05;;;;;;;1.53;1.20;;;4.10;99.90;;;;;;4957130;28;20234;-68
2021/04/04 02:35:36;;;;;;;1.40;0.70;;;4.10;99.90;;;;;;4967208;28;20275;-67
2021/04/04 02:38:10;;;;;;;1.10;1.00;;;4.10;99.90;;;;;;4955245;28;20212;-67
2021/04/04 02:40:39;;;;;;;1.03;0.87;;;4.10;99.90;;;;;;4955353;28;20756;-67
2021/04/04 02:43:08;;;;;;;1.27;0.90;;;4.00;99.90;;;;;;4955180;28;20193;-68
2021/04/04 02:45:37;;;;;;;1.20;0.80;;;4.00;99.90;;;;;;4961516;28;20216;-68
2021/04/04 02:48:09;;;;;;;0.80;0.80;;;4.00;99.90;;;;;;4959265;28;20196;-68
2021/04/04 02:50:37;;;;;;;2.83;1.03;;;4.00;99.90;;;;;;4955523;28;20197;-67
2021/04/04 02:53:07;;;;;;;1.57;1.00;;;4.00;99.90;;;;;;4950786;28;20208;-67
2021/04/04 02:55:37;;;;;;;1.60;1.03;;;4.00;99.90;;;;;;4953465;28;20190;-67
2021/04/04 02:58:06;;;;;;;1.33;1.10;;;4.00;99.90;;;;;;4966317;28;20701;-67
2021/04/04 03:00:34;;;;;;;1.73;0.97;;;4.00;99.90;;;;;;4948842;28;20557;-68
2021/04/04 03:03:02;;;;;;;1.07;0.97;;;4.00;99.90;;;;;;4971054;28;20207;-69
2021/04/04 03:05:30;;;;;;;1.80;1.10;;;4.00;99.90;;;;;;4948867;28;20216;-68
2021/04/04 03:08:01;;;;;;;1.57;1.13;;;4.00;99.90;;;;;;4969401;28;20255;-68
2021/04/04 03:10:29;;;;;;;1.10;1.00;;;4.00;99.90;;;;;;4950105;28;20205;-68
2021/04/04 03:12:56;;;;;;;1.70;0.87;;;4.00;99.90;;;;;;4957906;28;20204;-68
2021/04/04 03:15:23;;;;;;;1.30;0.90;;;4.00;99.90;;;;;;4950771;28;20238;-68
2021/04/04 03:17:51;;;;;;;1.17;0.90;;;4.00;99.90;;;;;;4965234;28;20208;-69
2021/04/04 03:20:19;;;;;;;1.70;1.00;;;4.00;99.90;;;;;;4950908;28;20207;-68
2021/04/04 03:22:47;;;;;;;2.57;1.10;;;4.00;99.90;;;;;;4965476;28;20196;-68
2021/04/04 03:25:16;;;;;;;1.40;1.20;;;4.10;99.90;;;;;;4968419;28;20200;-68
2021/04/04 03:27:45;;;;;;;1.37;1.00;;;4.10;99.90;;;;;;4955633;28;20210;-67
2021/04/04 03:30:35;;;;;;;1.73;1.23;;;4.10;99.90;;;;;;4962318;28;20665;-68
2021/04/04 03:33:03;;;;;;;1.90;1.23;;;4.10;99.90;;;;;;4957066;28;20229;-67
2021/04/04 03:35:31;;;;;;;1.20;1.10;;;4.20;99.90;;;;;;4958224;28;20189;-67
2021/04/04 03:38:00;;;;;;;2.50;1.00;;;4.20;99.90;;;;;;4958926;28;20193;-68
2021/04/04 03:40:28;;;;;;;6.20;1.60;;;4.20;99.90;;;;;;4958577;28;20212;-67
2021/04/04 03:42:56;;;;;;;1.20;1.10;;;4.20;99.90;;;;;;4947349;29;20200;-69
2021/04/04 03:45:24;;;;;;;2.03;1.27;;;4.20;99.90;;;;;;4944619;28;20190;-67
2021/04/04 03:47:51;;;;;;;1.87;1.17;;;4.20;99.90;;;;;;4944004;28;20678;-67
2021/04/04 03:50:19;;;;;;;1.47;1.13;;;4.20;99.90;;;;;;4955195;28;20197;-68
2021/04/04 03:52:48;;;;;;;2.27;1.47;;;4.20;99.90;;;;;;4950044;28;20201;-68
2021/04/04 03:55:18;;;;;;;1.00;1.00;;;4.10;99.90;;;;;;4948498;28;20198;-67
2021/04/04 03:57:48;;;;;;;1.23;1.13;;;4.10;99.90;;;;;;4953296;28;20736;-68
2021/04/04 04:00:16;;;;;;;1.43;1.10;;;4.10;99.90;;;;;;4971710;28;20283;-67
2021/04/04 04:02:44;;;;;;;3.43;1.53;;;4.20;99.90;;;;;;4961224;28;20557;-67
2021/04/04 04:05:13;;;;;;;1.37;1.10;;;4.10;99.90;;;;;;4966915;28;20231;-66
2021/04/04 04:07:40;;;;;;;1.83;1.10;;;4.10;99.90;;;;;;4967910;28;20212;-69
2021/04/04 04:10:08;;;;;;;3.43;1.40;;;4.10;99.90;;;;;;4965324;28;20201;-67
2021/04/04 04:12:35;;;;;;;1.20;1.10;;;4.10;99.90;;;;;;4952422;28;20205;-67
2021/04/04 04:15:05;;;;;;;1.70;1.23;;;4.00;99.90;;;;;;4963290;28;20201;-67
2021/04/04 04:17:32;;;;;;;1.17;1.07;;;4.00;99.90;;;;;;4967619;28;20211;-67
2021/04/04 04:20:00;;;;;;;2.10;1.20;;;4.00;99.90;;;;;;4963743;28;20197;-68
2021/04/04 04:22:28;;;;;;;1.83;1.00;;;4.00;99.90;;;;;;4965897;28;20220;-68
2021/04/04 04:24:55;;;;;;;1.30;1.20;;;4.00;99.90;;;;;;4961793;28;20736;-68
2021/04/04 04:27:23;;;;;;;1.93;1.37;;;4.00;99.90;;;;;;4964109;28;20716;-68
2021/04/04 04:29:50;;;;;;;1.80;1.47;;;4.00;99.90;;;;;;4961186;28;20205;-68
2021/04/04 04:32:21;;;;;;;1.40;1.30;;;4.00;99.90;;;;;;4963948;28;20398;-68
2021/04/04 04:34:50;;;;;;;1.33;1.00;;;4.00;99.90;;;;;;4959078;28;20197;-68
2021/04/04 04:37:18;;;;;;;3.30;1.50;;;4.00;99.90;;;;;;4955418;28;20200;-68
2021/04/04 04:39:46;;;;;;;2.10;1.43;;;4.00;99.90;;;;;;4955719;28;20197;-68
2021/04/04 04:42:13;;;;;;;1.90;1.20;;;3.90;99.90;;;;;;4956151;28;20201;-67
2021/04/04 04:44:43;;;;;;;1.60;1.07;;;4.00;99.90;;;;;;4953594;28;20208;-67
2021/04/04 04:47:11;;;;;;;2.37;0.90;;;4.00;99.90;;;;;;4955089;28;20208;-68
2021/04/04 04:49:39;;;;;;;1.43;1.10;;;4.00;99.90;;;;;;4944416;28;20669;-67
2021/04/04 04:52:06;;;;;;;0.90;0.90;;;4.00;99.90;;;;;;4950733;28;20217;-67
2021/04/04 04:54:33;;;;;;;1.00;0.90;;;4.10;99.90;;;;;;4951382;28;20208;-67
2021/04/04 04:57:01;;;;;;;1.50;1.10;;;4.10;99.90;;;;;;4938677;28;20562;-67
2021/04/04 04:59:28;;;;;;;0.60;0.60;;;4.10;99.90;;;;;;4960884;28;20208;-67
2021/04/04 05:01:55;;;;;;;1.30;0.90;;;4.10;99.90;;;;;;4967637;28;20251;-68
2021/04/04 05:04:22;;;;;;;2.20;1.00;;;4.20;99.90;;;;;;4968719;28;20255;-68
2021/04/04 05:06:53;;;;;;;1.00;1.00;;;4.20;99.90;;;;;;4966640;28;20216;-67
2021/04/04 05:09:21;;;;;;;0.90;0.70;;;4.20;99.90;;;;;;4968934;28;20637;-67
2021/04/04 05:11:50;;;;;;;2.40;1.30;;;4.30;99.90;;;;;;4953793;28;20272;-68
2021/04/04 05:14:16;;;;;;;3.67;1.10;;;4.30;99.90;;;;;;4959860;28;20295;-68
2021/04/04 05:16:43;;;;;;;1.77;0.70;;;4.30;99.90;;;;;;4963861;28;20189;-68
2021/04/04 05:19:11;;;;;;;2.00;1.00;;;4.30;99.90;;;;;;4968020;28;20223;-68
2021/04/04 05:21:40;;;;;;;1.50;0.87;;;4.30;99.90;;;;;;4966443;28;20200;-67
2021/04/04 05:24:09;;;;;;;2.23;1.17;;;4.40;99.90;;;;;;4969303;28;20192;-67
2021/04/04 05:26:40;;;;;;;2.97;1.30;;;4.40;99.90;;;;;;4960933;28;20563;-67
2021/04/04 05:29:08;;;;;;;1.23;0.90;;;4.50;99.90;;;;;;4961569;28;20664;-67
2021/04/04 05:31:43;;;;;;;0.73;0.73;;;4.60;99.90;;;;;;4957679;28;20233;-67
2021/04/04 05:34:12;;;;;;;1.40;0.90;;;4.70;99.90;;;;;;4962280;28;20284;-67
2021/04/04 05:36:47;;;;;;;1.63;0.90;;;4.70;99.90;;;;;;4965052;28;20272;-68
2021/04/04 05:39:17;;;;;;;0.90;0.80;;;4.80;99.90;;;;;;4957934;28;20204;-67
2021/04/04 05:41:48;;;;;;;1.20;1.10;;;4.80;99.90;;;;;;4963828;28;20194;-67
2021/04/04 05:44:18;;;;;;;1.17;1.00;;;4.90;99.90;;;;;;4960637;28;20197;-68
2021/04/04 05:46:50;;;;;;;2.40;1.27;;;5.00;99.90;;;;;;4950583;28;20225;-67
2021/04/04 05:49:19;;;;;;;1.30;1.20;;;5.10;99.90;;;;;;4945607;28;20591;-67
2021/04/04 05:51:54;;;;;;;1.17;1.00;;;5.20;99.90;;;;;;4947292;28;20203;-67
2021/04/04 05:54:39;;;;;;;2.07;1.20;;;5.20;99.90;;;;;;4948024;28;20553;-68
2021/04/04 05:57:14;;;;;;;1.00;0.90;;;5.40;99.90;;;;;;4957703;28;20656;-68
2021/04/04 05:59:45;;;;;;;2.77;1.20;;;5.50;99.90;;;;;;4974196;28;20539;-68
2021/04/04 06:02:45;;;;;;;2.00;1.20;;;5.70;99.90;;;;;;4973348;28;20283;-67
2021/04/04 06:05:39;;;;;;;1.80;1.40;;;6.20;99.90;;;;;;4972655;28;20251;-69
2021/04/04 06:08:37;;;;;;;1.00;0.93;;;7.00;99.90;;;;;;4969774;28;20299;-67
2021/04/04 06:11:15;;;;;;;5.83;1.97;;;7.80;99.90;;;;;;4911259;29;20698;-68
2021/04/04 06:13:54;;;;;;;1.83;1.50;;;8.40;99.90;;;;;;4902138;29;20210;-67
2021/04/04 06:16:29;;;;;;;2.03;1.53;;;8.70;99.90;;;;;;4889361;29;20216;-67
2021/04/04 06:19:09;;;;;;;2.17;1.30;;;8.90;99.70;;;;;;4903976;29;20722;-68
2021/04/04 06:21:41;;;;;;;1.47;1.23;;;9.00;99.20;;;;;;4874962;29;20219;-67
2021/04/04 06:24:18;;;;;;;1.90;1.30;;;9.10;98.80;;;;;;4888572;29;20235;-68
2021/04/04 06:26:56;;;;;;;2.47;1.40;;;9.10;98.30;;;;;;4901990;29;20225;-67
2021/04/04 06:29:31;;;;;;;3.43;1.87;;;9.20;97.70;;;;;;4888488;29;20704;-67
2021/04/04 06:32:03;;;;;;;2.70;1.60;;;9.10;97.10;;;;;;4895937;29;20240;-67
2021/04/04 06:34:39;;;;;;;1.43;1.23;;;9.00;96.80;;;;;;4890543;29;20244;-67
2021/04/04 06:37:23;;;;;;;2.33;1.40;;;9.00;96.80;;;;;;4896560;29;20202;-67
2021/04/04 06:40:01;;;;;;;2.00;1.20;;;9.10;96.60;;;;;;4882285;29;20211;-68
2021/04/04 06:43:01;;;;;;;1.20;1.10;;;9.20;96.30;;;;;;4863843;29;20624;-67
2021/04/04 06:45:38;;;;;;;4.57;1.73;;;9.30;96.20;;;;;;4883060;29;20688;-68
2021/04/04 06:48:15;;;;;;;2.47;1.50;;;9.30;95.40;;;;;;4930415;28;20682;-67
2021/04/04 06:50:47;;;;;;;1.43;1.33;;;9.40;95.20;;;;;;4937365;28;20211;-68
2021/04/04 06:53:25;;;;;;;4.43;1.47;;;9.60;95.00;;;;;;4937429;29;20194;-68
2021/04/04 06:56:00;;;;;;;3.53;1.73;;;9.80;94.40;;;;;;4941330;29;20219;-67
2021/04/04 06:58:38;;;;;;;2.97;1.40;;;10.10;92.80;;;;;;4957317;28;20669;-67
2021/04/04 07:01:24;;;;;;;2.43;1.87;;;10.50;92.10;;;;;;4972646;28;20192;-67
2021/04/04 07:03:57;;;;;;;3.33;1.50;;;11.30;91.60;;;;;;4942214;28;20662;-68
2021/04/04 07:07:14;;;;;;;3.97;1.50;;;12.10;88.70;;;;;;4957926;28;20240;-68
2021/04/04 07:09:59;;;;;;;2.13;1.40;;;12.80;86.10;;;;;;4952298;28;20266;-67
2021/04/04 07:12:44;;;;;;;1.33;1.10;;;13.50;81.30;;;;;;4941209;28;20191;-68
2021/04/04 07:15:23;;;;;;;2.20;1.63;;;14.20;79.40;;;;;;4957846;28;20753;-67
2021/04/04 07:18:02;;;;;;;1.80;1.43;;;14.70;76.60;;;;;;4963498;28;20198;-67
2021/04/04 07:20:43;;;;;;;2.30;1.40;;;15.30;74.50;;;;;;4961917;28;20661;-68
2021/04/04 07:23:38;;;;;;;3.07;1.83;;;16.10;71.40;;;;;;4948250;28;20203;-67
2021/04/04 07:26:18;;;;;;;2.37;2.03;;;17.00;67.00;;;;;;4955193;28;20725;-68
2021/04/04 07:29:05;;;;;;;2.20;1.67;;;18.40;63.20;;;;;;4963326;28;20652;-67
2021/04/04 07:31:42;;;;;;;2.03;1.63;;;20.00;58.60;;;;;;4955264;28;20243;-69
2021/04/04 07:34:14;;;;;;;2.57;1.50;;;21.70;55.80;;;;;;4963389;28;20504;-71
2021/04/04 07:36:51;;;;;;;2.22;1.60;;;23.30;52.00;;;;;;4955884;28;20207;-68
2021/04/04 07:39:30;;;;;;;3.80;2.00;;;24.70;48.30;;;;;;4960020;28;20197;-69
2021/04/04 07:42:07;;;;;;;1.60;1.50;;;26.00;45.60;;;;;;4961300;28;20204;-68
2021/04/04 07:44:39;;;;;;;1.35;1.25;;;27.20;42.90;;;;;;4947505;28;20193;-67
2021/04/04 07:47:19;;;;;;;1.30;1.25;;;28.20;40.10;;;;;;4953025;28;20228;-68
2021/04/04 07:49:51;;;;;;;1.63;1.50;;;29.20;38.60;;;;;;4959911;28;20601;-68
2021/04/04 07:52:25;;;;;;;2.25;1.67;;;30.20;37.20;;;;;;4956431;28;20193;-69
2021/04/04 07:55:08;;;;;;;1.80;1.70;;;30.80;33.80;;;;;;4955498;28;20209;-67
2021/04/04 07:57:46;;;;;;;2.13;1.90;;;31.50;32.70;;;;;;4960358;28;20678;-68
2021/04/04 08:00:15;;;;;;;1.70;1.60;;;32.30;31.10;;;;;;4968308;28;20260;-68
2021/04/04 08:02:50;;;;;;;1.77;1.67;;;33.20;30.50;;;;;;4953561;28;20200;-68
2021/04/04 08:05:22;;;;;;;1.80;1.70;;;33.90;29.40;;;;;;4966301;28;20195;-68
2021/04/04 08:07:57;;;;;;;2.10;1.85;;;34.80;28.90;;;;;;4959659;28;20213;-68
2021/04/04 08:10:31;;;;;;;1.90;1.70;;;35.70;28.30;;;;;;4952648;28;20200;-68
2021/04/04 08:13:09;;;;;;;2.22;1.90;;;36.30;27.30;;;;;;4951762;28;20573;-68
2021/04/04 08:15:45;;;;;;;1.70;1.60;;;36.90;26.80;;;;;;4961930;28;20297;-68
2021/04/04 08:18:12;;;;;;;1.92;1.80;;;37.70;26.40;;;;;;4960517;28;20251;-68
2021/04/04 08:20:46;;;;;;;2.03;1.83;;;38.40;25.60;;;;;;4965368;28;20558;-68
2021/04/04 08:23:22;;;;;;;1.98;1.80;;;38.70;24.90;;;;;;4959546;28;20335;-71
2021/04/04 08:25:54;;;;;;;2.00;1.90;;;39.10;24.60;;;;;;4945706;29;20320;-68
2021/04/04 08:28:27;;;;;;;2.17;1.98;;;39.60;24.20;;;;;;4949098;28;20609;-68
2021/04/04 08:30:56;;;;;;;1.45;1.35;;;39.80;23.00;;;;;;4957961;28;20597;-69
2021/04/04 08:33:29;;;;;;;1.83;1.48;;;40.00;23.30;;;;;;4955753;28;20208;-69
2021/04/04 08:36:00;;;;;;;1.90;1.80;;;40.50;23.10;;;;;;4956662;28;20197;-69
2021/04/04 08:38:32;;;;;;;1.65;1.60;;;40.80;22.20;;;;;;4954406;28;20684;-69
2021/04/04 08:41:00;;;;;;;1.70;1.60;;;41.20;22.40;;;;;;4953504;28;20251;-68
2021/04/04 08:43:28;;;;;;;1.90;1.80;;;41.70;22.40;;;;;;4950689;28;20209;-68
2021/04/04 08:46:00;;;;;;;3.80;2.45;;;42.10;22.00;;;;;;4946166;28;20235;-68
2021/04/04 08:48:29;;;;;;;2.03;1.90;;;42.20;21.40;;;;;;4954457;28;20224;-68
2021/04/04 08:50:57;;;;;;;1.73;1.63;;;42.50;21.30;;;;;;4952695;28;20237;-68
2021/04/04 08:53:27;;;;;;;1.58;1.48;;;42.70;20.80;;;;;;4943521;28;20203;-70
2021/04/04 08:55:55;;;;;;;2.28;1.85;;;43.10;20.60;;;;;;4933347;29;20203;-68
2021/04/04 08:58:29;;;;;;;1.55;1.50;;;43.30;20.40;;;;;;4958913;28;20207;-68
2021/04/04 09:01:04;;;;;;;1.50;1.40;;;43.50;20.40;;;;;;4950406;28;20542;-68
2021/04/04 09:03:37;;;;;;;1.98;1.88;;;43.70;20.10;;;;;;4966517;28;20255;-68
2021/04/04 09:06:06;;;;;;;3.75;2.03;;;43.80;20.00;;;;;;4968301;28;20192;-68
2021/04/04 09:08:34;;;;;;;2.00;1.90;;;44.00;19.70;;;;;;4964646;28;20204;-68
2021/04/04 09:11:02;;;;;;;2.28;2.17;;;44.20;19.70;;;;;;4967646;28;20200;-69
2021/04/04 09:13:33;;;;;;;2.03;1.92;;;44.40;19.40;;;;;;4952706;28;20204;-68
2021/04/04 09:16:07;;;;;;;2.00;1.90;;;44.70;19.30;;;;;;4956077;28;20693;-67
2021/04/04 09:18:47;;;;;;;2.30;2.03;;;45.00;19.20;;;;;;4956715;28;20503;-68
2021/04/04 09:21:15;;;;;;;2.25;2.05;;;45.00;18.70;;;;;;4941103;29;20201;-68
2021/04/04 09:23:45;;;;;;;3.30;2.10;;;45.20;18.70;;;;;;4955841;28;20267;-68
2021/04/04 09:26:16;;;;;;;3.38;1.90;;;45.10;18.50;;;;;;4958643;28;20811;-68
2021/04/04 09:28:43;;;;;;;1.98;1.88;;;44.20;18.60;;;;;;4954766;28;20731;-68
2021/04/04 09:31:19;;;;;;;2.40;2.20;;;43.40;18.70;;;;;;4957380;28;20237;-67
2021/04/04 09:33:57;;;;;;;2.10;2.00;;;42.40;18.60;;;;;;4958128;28;20193;-70
2021/04/04 09:36:24;;;;;;;2.03;1.92;;;42.40;18.90;;;;;;4947584;28;20232;-70
2021/04/04 09:38:52;;;;;;;2.10;2.00;;;42.40;18.70;;;;;;4953335;28;20197;-71
2021/04/04 09:41:20;;;;;;;1.83;1.73;;;42.60;18.60;;;;;;4936448;28;20253;-71
2021/04/04 09:44:02;;;;;;;2.00;1.90;;;43.10;18.80;;;;;;4935790;28;20207;-71
2021/04/04 09:46:29;;;;;;;2.45;2.35;;;43.80;18.70;;;;;;4942606;28;20220;-70
2021/04/04 09:48:56;;;;;;;2.13;1.90;;;44.20;18.20;;;;;;4945257;28;20203;-70
2021/04/04 09:51:23;;;;;;;2.45;2.33;;;44.40;17.90;;;;;;4956768;28;20194;-70
2021/04/04 09:53:51;;;;;;;1.90;1.80;;;44.40;17.60;;;;;;4943071;28;20262;-71
2021/04/04 09:56:20;;;;;;;2.10;1.90;;;44.30;17.70;;;;;;4937190;28;20216;-71
2021/04/04 09:58:48;;;;;;;2.00;1.90;;;42.70;17.80;;;;;;4956872;28;20296;-71
2021/04/04 10:01:17;;;;;;;1.88;1.77;;;41.40;17.90;;;;;;4961344;28;20207;-71
2021/04/04 10:04:00;;;;;;;1.73;1.60;;;41.20;18.20;;;;;;4960004;28;20201;-71
2021/04/04 10:06:27;;;;;;;1.92;1.83;;;40.20;18.10;;;;;;4964089;28;20192;-71
2021/04/04 10:08:55;;;;;;;1.85;1.75;;;38.80;18.40;;;;;;4964863;28;20192;-70
2021/04/04 10:11:23;;;;;;;1.70;1.60;;;37.30;18.70;;;;;;4969169;28;20204;-71
2021/04/04 10:13:50;;;;;;;1.55;1.45;;;36.30;19.10;;;;;;4945621;28;20558;-70
2021/04/04 10:16:19;;;;;;;1.40;1.38;;;36.20;19.40;;;;;;4955991;28;20200;-71
2021/04/04 10:19:08;;;;;;;2.17;1.40;;;36.90;19.30;;;;;;4955636;28;20209;-70
2021/04/04 10:21:36;;;;;;;1.38;1.27;;;38.00;19.00;;;;;;4947406;28;20193;-71
2021/04/04 10:24:25;;;;;;;1.70;1.60;;;39.00;18.70;;;;;;4960053;28;20218;-71
2021/04/04 10:27:16;;;;;;;1.60;1.60;;;39.80;18.70;;;;;;4965345;28;20197;-71
2021/04/04 10:29:43;;;;;;;1.60;1.50;;;40.50;18.50;;;;;;4940158;28;20288;-71
2021/04/04 10:32:09;;;;;;;1.67;1.58;;;41.20;18.10;;;;;;4944953;28;20240;-71
2021/04/04 10:34:44;;;;;;;1.45;1.42;;;41.60;18.10;;;;;;4949755;28;20280;-71
2021/04/04 10:37:11;;;;;;;1.50;1.40;;;41.80;17.90;;;;;;4942765;28;20689;-71
2021/04/04 10:39:38;;;;;;;2.85;1.75;;;40.60;17.90;;;;;;4949266;28;20194;-71
2021/04/04 10:42:15;;;;;;;1.75;1.65;;;38.60;18.00;;;;;;4956149;28;20247;-70
2021/04/04 10:44:42;;;;;;;1.48;1.38;;;36.30;18.50;;;;;;4956517;28;20609;-71
2021/04/04 10:47:22;;;;;;;1.30;1.30;;;34.50;19.10;;;;;;4953445;28;20198;-72
2021/04/04 10:49:50;;;;;;;2.97;1.55;;;33.10;19.50;;;;;;4941478;28;20202;-70
2021/04/04 10:52:18;;;;;;;1.48;1.38;;;32.00;20.00;;;;;;4957411;28;20196;-69
2021/04/04 10:54:45;;;;;;;1.42;1.33;;;30.90;20.40;;;;;;4945785;28;20196;-70
2021/04/04 10:57:12;;;;;;;1.60;1.30;;;30.10;20.80;;;;;;4949937;28;20334;-69
2021/04/04 10:59:39;;;;;;;1.25;1.20;;;29.30;21.20;;;;;;4950457;28;20197;-69
2021/04/04 11:02:06;;;;;;;1.20;1.20;;;28.70;21.50;;;;;;4949958;28;20562;-69
2021/04/04 11:04:33;;;;;;;1.13;1.13;;;28.20;21.80;;;;;;4968957;28;20279;-70
2021/04/04 11:07:01;;;;;;;1.45;1.35;;;27.70;22.10;;;;;;4944856;28;20205;-70
2021/04/04 11:09:28;;;;;;;1.17;1.17;;;27.60;22.40;;;;;;4951992;28;20194;-70
2021/04/04 11:11:56;;;;;;;1.25;1.15;;;29.00;22.60;;;;;;4957468;28;20592;-71
2021/04/04 11:14:24;;;;;;;1.27;1.25;;;30.70;22.00;;;;;;4943227;28;20890;-71
2021/04/04 11:16:55;;;;;;;1.55;1.10;;;32.20;21.50;;;;;;4954254;28;20232;-71
2021/04/04 11:19:25;;;;;;;1.90;1.63;;;33.50;21.10;;;;;;4957714;28;20213;-71
2021/04/04 11:21:54;;;;;;;1.10;1.10;;;34.50;20.30;;;;;;4951313;28;20197;-71
2021/04/04 11:24:23;;;;;;;1.00;1.00;;;34.80;20.00;;;;;;4958730;28;20665;-71
2021/04/04 11:26:51;;;;;;;1.10;1.10;;;34.60;19.60;;;;;;4950696;28;20225;-70
2021/04/04 11:29:19;;;;;;;1.38;1.30;;;33.90;19.70;;;;;;4959060;28;20209;-70
2021/04/04 11:31:47;;;;;;;1.60;1.48;;;33.20;19.90;;;;;;4945539;28;20256;-70
2021/04/04 11:34:26;;;;;;;1.50;1.40;;;33.10;20.20;;;;;;4943392;28;20308;-71
2021/04/04 11:36:52;;;;;;;1.40;1.40;;;33.20;20.10;;;;;;4951140;28;20621;-71
2021/04/04 11:39:21;;;;;;;1.00;1.00;;;33.20;19.90;;;;;;4945880;28;20197;-71
2021/04/04 11:41:50;;;;;;;1.52;1.42;;;32.80;20.00;;;;;;4962171;28;20221;-71
2021/04/04 11:44:23;;;;;;;1.00;1.00;;;33.00;20.20;;;;;;4943695;28;20220;-71
2021/04/04 11:46:52;;;;;;;1.00;1.00;;;33.20;19.90;;;;;;4943952;28;20209;-71
2021/04/04 11:49:39;;;;;;;1.25;1.25;;;32.70;19.90;;;;;;4953412;28;20196;-72
2021/04/04 11:52:46;;;;;;;1.25;1.15;;;32.30;20.00;;;;;;4956031;28;20200;-71
2021/04/04 11:55:15;;;;;;;1.30;1.30;;;31.70;20.10;;;;;;4961529;28;20673;-71
2021/04/04 11:57:44;;;;;;;1.40;1.30;;;31.60;20.20;;;;;;4951014;28;20300;-71
2021/04/04 12:00:18;;;;;;;1.00;1.00;;;31.90;20.30;;;;;;4959032;28;20200;-72
2021/04/04 12:02:51;;;;;;;1.15;1.15;;;31.90;20.20;;;;;;4963134;28;20211;-71
2021/04/04 12:05:19;;;;;;;1.23;1.23;;;31.40;20.10;;;;;;4964900;28;20371;-71
2021/04/04 12:07:47;;;;;;;1.05;1.00;;;30.60;20.30;;;;;;4946759;28;20194;-71
2021/04/04 12:10:16;;;;;;;0.93;0.93;;;29.60;20.60;;;;;;4955019;28;20757;-72
2021/04/04 12:12:44;;;;;;;1.17;1.10;;;28.70;20.90;;;;;;4952518;28;20193;-70
2021/04/04 12:15:12;;;;;;;1.27;1.15;;;28.00;21.20;;;;;;4953237;28;20212;-71
2021/04/04 12:17:44;;;;;;;0.98;0.98;;;27.20;21.40;;;;;;4965460;28;20205;-71
2021/04/04 12:20:11;;;;;;;0.90;0.90;;;26.50;21.70;;;;;;4962680;28;20669;-70
2021/04/04 12:22:40;;;;;;;0.90;0.90;;;25.70;22.00;;;;;;4964176;28;20197;-70
2021/04/04 12:25:09;;;;;;;0.85;0.85;;;25.00;22.20;;;;;;4949042;28;20196;-70
2021/04/04 12:27:39;;;;;;;1.00;0.95;;;24.60;22.50;;;;;;4949318;28;20201;-70
2021/04/04 12:30:14;;;;;;;1.77;0.90;;;24.10;22.80;;;;;;4949896;28;20703;-71
2021/04/04 12:32:42;;;;;;;0.73;0.73;;;23.60;23.10;;;;;;4952731;28;20244;-71
2021/04/04 12:35:09;;;;;;;0.90;0.90;;;23.00;23.10;;;;;;4959907;28;20759;-72
2021/04/04 12:37:38;;;;;;;1.10;1.00;;;22.60;23.40;;;;;;4947144;28;20228;-72
2021/04/04 12:40:07;;;;;;;1.10;1.00;;;22.20;23.60;;;;;;4949084;28;20210;-71
2021/04/04 12:42:37;;;;;;;0.82;0.82;;;21.80;23.90;;;;;;4953606;28;20198;-72
2021/04/04 12:45:06;;;;;;;1.00;1.00;;;21.40;24.00;;;;;;4948063;28;20614;-70
2021/04/04 12:47:33;;;;;;;0.80;0.80;;;21.10;24.10;;;;;;4937660;28;20190;-70
2021/04/04 12:50:01;;;;;;;1.15;1.05;;;20.90;24.50;;;;;;4938361;28;20214;-69
2021/04/04 12:52:36;;;;;;;0.75;0.75;;;20.60;24.70;;;;;;4940040;28;20689;-69
2021/04/04 12:55:24;;;;;;;1.60;1.30;;;20.40;25.00;;;;;;4944992;28;20303;-70
2021/04/04 12:57:56;;;;;;;0.70;0.70;;;20.10;25.10;;;;;;4962391;28;20711;-71
2021/04/04 13:00:25;;;;;;;0.65;0.52;;;19.90;25.30;;;;;;4955402;28;20275;-71
2021/04/04 13:03:10;;;;;;;0.70;0.70;;;19.70;25.30;;;;;;4961946;28;20200;-71
2021/04/04 13:05:39;;;;;;;0.70;0.70;;;19.50;25.40;;;;;;4945754;28;20236;-71
2021/04/04 13:08:16;;;;;;;0.77;0.77;;;19.40;25.70;;;;;;4957815;28;20680;-72
2021/04/04 13:10:46;;;;;;;1.80;0.95;;;19.20;25.80;;;;;;4953741;28;20208;-72
2021/04/04 13:13:18;;;;;;;1.58;0.80;;;18.90;25.90;;;;;;4953623;28;20206;-70
2021/04/04 13:15:45;;;;;;;0.70;0.70;;;18.80;26.10;;;;;;4962790;28;20201;-71